Time;durP1;ratioP1;P1;durP2;ratioP2;P2;SDS_P1;SDS_P2;PMS_P1;PMS_P2;Temp;Humidity;BMP_temperature;BMP_pressure;BME280_temperature;BME280_humidity;BME280_pressure;Samples;Min_cycle;Max_cycle;Signal;HPM_P1;HPM_P2
2023/03/15 00:01:39;;;;;;;2.35;1.50;;;;;;;2.64;89.30;101404.53;6101267;19;20014;-78
2023/03/15 00:03:45;;;;;;;3.83;1.65;;;;;;;2.55;89.37;101413.16;6101319;19;20700;-79
2023/03/15 00:05:51;;;;;;;1.67;1.55;;;;;;;2.51;89.20;101405.38;6104629;19;20090;-79
2023/03/15 00:07:56;;;;;;;2.40;1.67;;;;;;;2.47;89.57;101409.69;6102829;19;20010;-78
2023/03/15 00:10:01;;;;;;;5.35;1.38;;;;;;;2.45;89.09;101415.72;6101301;19;20011;-78
2023/03/15 00:12:11;;;;;;;6.43;1.80;;;;;;;2.47;89.00;101419.19;6103136;19;20562;-79
2023/03/15 00:14:15;;;;;;;3.83;2.03;;;;;;;2.46;89.24;101415.75;6100598;19;20384;-78
2023/03/15 00:16:26;;;;;;;3.80;1.58;;;;;;;2.49;89.03;101413.16;6104555;19;20010;-78
2023/03/15 00:18:31;;;;;;;7.93;1.63;;;;;;;2.46;88.23;101415.75;6103510;19;20506;-79
2023/03/15 00:20:38;;;;;;;1.65;1.25;;;;;;;2.41;89.16;101420.91;6102937;19;20015;-78
2023/03/15 00:22:43;;;;;;;2.35;1.65;;;;;;;2.38;89.42;101420.91;6102876;19;20444;-77
2023/03/15 00:24:51;;;;;;;1.38;1.27;;;;;;;2.34;89.56;101416.59;6105027;19;20180;-79
2023/03/15 00:26:59;;;;;;;3.30;1.35;;;;;;;2.29;90.20;101422.59;6110234;19;20042;-78
2023/03/15 00:29:08;;;;;;;5.70;1.67;;;;;;;2.26;89.88;101425.19;6107581;19;20404;-78
2023/03/15 00:31:20;;;;;;;3.75;1.50;;;;;;;2.23;90.14;101428.63;6114038;19;20010;-78
2023/03/15 00:33:25;;;;;;;2.03;1.30;;;;;;;2.19;89.89;101432.97;6115510;19;20102;-77
2023/03/15 00:35:30;;;;;;;2.58;1.45;;;;;;;2.19;90.21;101432.97;6116889;19;20155;-79
2023/03/15 00:37:36;;;;;;;3.50;1.67;;;;;;;2.20;89.69;101431.22;6120034;19;20015;-79
2023/03/15 00:39:44;;;;;;;1.60;1.30;;;;;;;2.15;89.97;101427.75;6095391;19;20002;-78
2023/03/15 00:41:49;;;;;;;4.25;1.63;;;;;;;2.16;89.96;101435.56;6118089;19;20018;-77
2023/03/15 00:43:54;;;;;;;4.05;1.52;;;;;;;2.20;89.76;101439.00;6119788;19;20022;-78
2023/03/15 00:46:02;;;;;;;1.73;1.50;;;;;;;2.17;89.62;101437.28;6117085;19;20090;-77
2023/03/15 00:48:08;;;;;;;2.58;1.50;;;;;;;2.13;89.61;101438.13;6113142;19;20020;-79
2023/03/15 00:50:13;;;;;;;7.55;1.70;;;;;;;2.12;90.07;101438.97;6103924;19;20010;-77
2023/03/15 00:52:18;;;;;;;2.05;1.33;;;;;;;2.11;90.13;101439.84;6104005;19;20689;-79
2023/03/15 00:54:23;;;;;;;1.65;1.15;;;;;;;2.08;90.11;101441.53;6101075;19;20565;-78
2023/03/15 00:56:31;;;;;;;4.13;1.48;;;;;;;2.05;89.82;101449.31;6101159;19;20098;-77
2023/03/15 00:58:39;;;;;;;3.30;1.85;;;;;;;2.05;89.92;101447.56;6100310;19;20047;-77
2023/03/15 01:00:46;;;;;;;3.83;1.35;;;;;;;2.02;90.30;101450.16;6098939;19;20018;-77
2023/03/15 01:02:54;;;;;;;5.30;1.63;;;;;;;1.96;90.28;101452.75;6093305;19;20649;-77
2023/03/15 01:05:00;;;;;;;4.57;1.50;;;;;;;1.95;90.31;101457.06;6105095;19;20015;-76
2023/03/15 01:07:06;;;;;;;2.53;1.60;;;;;;;1.92;90.21;101461.34;6098658;19;20015;-78
2023/03/15 01:09:11;;;;;;;2.92;1.70;;;;;;;1.89;90.49;101458.75;6095966;19;20321;-76
2023/03/15 01:11:23;;;;;;;2.35;1.60;;;;;;;1.85;90.77;101455.28;6094232;19;20098;-77
2023/03/15 01:13:28;;;;;;;2.88;1.50;;;;;;;1.80;90.93;101461.31;6098037;19;20102;-78
2023/03/15 01:15:34;;;;;;;1.40;1.20;;;;;;;1.77;90.68;101467.34;6075277;19;20024;-77
2023/03/15 01:17:39;;;;;;;3.40;1.45;;;;;;;1.71;91.06;101468.16;6097750;19;20659;-78
2023/03/15 01:19:46;;;;;;;2.22;1.90;;;;;;;1.69;90.89;101467.28;6096946;19;20014;-78
2023/03/15 01:21:52;;;;;;;3.95;1.58;;;;;;;1.67;91.32;101479.34;6099451;19;20023;-76
2023/03/15 01:23:57;;;;;;;3.47;1.23;;;;;;;1.64;91.58;101481.06;6097601;19;20011;-78
2023/03/15 01:26:05;;;;;;;2.13;1.10;;;;;;;1.60;91.19;101477.56;6097701;19;20374;-78
2023/03/15 01:28:15;;;;;;;1.55;1.35;;;;;;;1.58;91.64;101481.91;6097923;19;20014;-78
2023/03/15 01:30:20;;;;;;;4.43;1.73;;;;;;;1.56;92.13;101480.16;6097243;19;20014;-78
2023/03/15 01:32:25;;;;;;;2.50;1.58;;;;;;;1.56;92.47;101487.94;6098356;19;20658;-79
2023/03/15 01:34:30;;;;;;;3.65;1.42;;;;;;;1.50;91.96;101488.72;6099573;19;20026;-78
2023/03/15 01:36:37;;;;;;;5.47;2.47;;;;;;;1.53;91.81;101493.94;6097790;19;20014;-77
2023/03/15 01:38:44;;;;;;;3.35;1.65;;;;;;;1.50;91.71;101491.31;6096244;19;20014;-78
2023/03/15 01:40:49;;;;;;;2.30;1.60;;;;;;;1.52;92.26;101502.56;6100158;19;20683;-77
2023/03/15 01:43:13;;;;;;;3.75;1.58;;;;;;;1.51;92.00;101500.84;6104044;19;20544;-78
2023/03/15 01:45:55;;;;;;;1.70;1.20;;;;;;;1.56;92.14;101508.66;6105125;19;20109;-78
2023/03/15 01:48:01;;;;;;;2.63;1.40;;;;;;;1.61;92.06;101513.00;6081344;19;20018;-78
2023/03/15 01:50:10;;;;;;;3.45;1.60;;;;;;;1.60;91.67;101520.75;6101235;19;20758;-78
2023/03/15 01:52:21;;;;;;;2.08;1.70;;;;;;;1.59;91.84;101527.66;6098953;19;20015;-78
2023/03/15 01:54:31;;;;;;;2.05;1.38;;;;;;;1.56;92.16;101529.38;6102964;19;20032;-77
2023/03/15 01:56:38;;;;;;;3.10;1.70;;;;;;;1.51;92.13;101527.59;6102693;19;20504;-77
2023/03/15 01:58:46;;;;;;;2.30;1.38;;;;;;;1.50;92.38;101525.88;6102770;19;20010;-78
2023/03/15 02:00:54;;;;;;;1.23;1.15;;;;;;;1.46;92.22;101525.81;6077604;19;20015;-77
2023/03/15 02:03:05;;;;;;;1.20;1.10;;;;;;;1.40;92.20;101528.38;6094995;19;20007;-77
2023/03/15 02:05:14;;;;;;;1.40;1.30;;;;;;;1.36;92.65;101531.78;6104954;19;20029;-77
2023/03/15 02:07:26;;;;;;;2.60;1.60;;;;;;;1.31;92.30;101534.31;6102903;19;20029;-79
2023/03/15 02:09:37;;;;;;;3.08;1.92;;;;;;;1.30;91.93;101537.78;6101952;19;20295;-77
2023/03/15 02:11:43;;;;;;;2.15;1.50;;;;;;;1.29;92.41;101534.34;6100679;19;20025;-77
2023/03/15 02:13:50;;;;;;;2.90;1.67;;;;;;;1.27;92.29;101533.44;6103272;19;20010;-78
2023/03/15 02:15:56;;;;;;;5.45;2.13;;;;;;;1.27;92.82;101541.22;6104683;19;20015;-78
2023/03/15 02:18:01;;;;;;;5.47;2.20;;;;;;;1.27;93.22;101543.81;6102975;19;20017;-77
2023/03/15 02:20:17;;;;;;;5.03;2.10;;;;;;;1.28;94.23;101548.09;6102955;19;20010;-79
2023/03/15 02:22:37;;;;;;;6.22;2.80;;;;;;;1.24;93.09;101545.50;6099147;19;20557;-78
2023/03/15 02:24:54;;;;;;;5.35;2.97;;;;;;;1.27;93.49;101551.56;6078560;19;20042;-78
2023/03/15 02:27:02;;;;;;;5.72;2.97;;;;;;;1.26;93.93;101549.84;6101349;19;20296;-78
2023/03/15 02:29:10;;;;;;;5.82;2.88;;;;;;;1.22;93.31;101555.84;6082874;19;20450;-78
2023/03/15 02:31:16;;;;;;;2.50;2.10;;;;;;;1.20;92.60;101557.53;6082419;19;20130;-79
2023/03/15 02:33:25;;;;;;;4.72;2.17;;;;;;;1.21;93.31;101563.56;6106529;19;20027;-79
2023/03/15 02:35:33;;;;;;;2.88;1.75;;;;;;;1.18;93.60;101561.81;6105579;19;20014;-78
2023/03/15 02:37:38;;;;;;;3.55;2.17;;;;;;;1.16;93.33;101562.66;6105060;19;20085;-78
2023/03/15 02:39:46;;;;;;;3.80;1.80;;;;;;;1.10;93.71;101566.91;6108186;19;20074;-78
2023/03/15 02:41:55;;;;;;;4.88;2.05;;;;;;;1.06;93.31;101569.47;6107338;19;20006;-78
2023/03/15 02:44:06;;;;;;;3.03;1.73;;;;;;;1.03;93.37;101564.28;6082628;19;20034;-78
2023/03/15 02:46:14;;;;;;;4.97;1.90;;;;;;;0.97;94.12;101554.72;6082498;19;20683;-78
2023/03/15 02:48:20;;;;;;;3.00;1.42;;;;;;;0.97;93.61;101564.19;6099538;19;20027;-78
2023/03/15 02:50:25;;;;;;;2.30;1.58;;;;;;;0.94;94.13;101565.03;6097967;19;20043;-78
2023/03/15 02:52:33;;;;;;;2.92;1.38;;;;;;;0.90;94.27;101577.94;6105251;19;20039;-78
2023/03/15 02:54:42;;;;;;;3.55;1.88;;;;;;;0.91;94.56;101590.03;6107066;19;20010;-78
2023/03/15 02:56:50;;;;;;;5.82;1.80;;;;;;;0.86;94.33;101580.47;6102073;19;20086;-78
2023/03/15 02:58:55;;;;;;;5.32;1.88;;;;;;;0.77;93.86;101587.28;6079758;19;20010;-78
2023/03/15 03:01:00;;;;;;;1.42;1.33;;;;;;;0.76;94.18;101598.47;6102027;19;20013;-77
2023/03/15 03:03:12;;;;;;;3.10;1.55;;;;;;;0.74;94.15;101613.09;6104071;19;20038;-78
2023/03/15 03:05:18;;;;;;;3.00;1.70;;;;;;;0.72;94.41;101620.84;6086882;19;20014;-78
2023/03/15 03:07:23;;;;;;;3.75;1.70;;;;;;;0.68;94.16;101632.00;6100442;19;20023;-78
2023/03/15 03:09:30;;;;;;;2.25;1.83;;;;;;;0.67;94.48;101619.91;6103364;19;20375;-78
2023/03/15 03:11:35;;;;;;;4.38;1.88;;;;;;;0.67;94.16;101625.09;6104766;19;20018;-77
2023/03/15 03:13:42;;;;;;;2.97;2.05;;;;;;;0.64;93.86;101625.06;6104797;19;20023;-77
2023/03/15 03:15:57;;;;;;;6.07;2.08;;;;;;;0.66;94.88;101631.13;6082202;19;20056;-77
2023/03/15 03:18:02;;;;;;;2.08;1.73;;;;;;;0.69;94.89;101633.75;6102803;19;20027;-77
2023/03/15 03:20:15;;;;;;;2.33;1.70;;;;;;;0.73;95.08;101632.91;6103498;19;20018;-78
2023/03/15 03:22:23;;;;;;;;;;;;;;;0.77;95.05;101636.44;6102481;19;20482;-77
2023/03/15 03:24:28;;;;;;;4.38;1.90;;;;;;;0.81;94.85;101662.34;6084134;19;20516;-78
2023/03/15 03:26:36;;;;;;;5.78;1.90;;;;;;;1.04;95.19;101667.81;6102818;19;20027;-77
2023/03/15 03:28:41;;;;;;;8.65;2.20;;;;;;;1.31;93.90;101666.38;6106451;19;20510;-77
2023/03/15 03:30:49;;;;;;;2.03;1.48;;;;;;;1.33;93.33;101674.19;6113147;19;20043;-78
2023/03/15 03:32:56;;;;;;;6.00;1.90;;;;;;;1.29;93.25;101675.84;6113109;19;20042;-77
2023/03/15 03:35:04;;;;;;;7.32;1.80;;;;;;;1.28;93.20;101677.56;6112842;19;20025;-77
2023/03/15 03:37:14;;;;;;;2.75;1.30;;;;;;;1.20;93.23;101684.38;6114353;19;20006;-77
2023/03/15 03:39:20;;;;;;;2.58;1.58;;;;;;;1.23;93.56;101676.66;6116208;19;20031;-77
2023/03/15 03:41:33;;;;;;;1.65;1.10;;;;;;;1.26;93.43;101670.63;6120002;19;20082;-76
2023/03/15 03:43:45;;;;;;;5.03;1.65;;;;;;;1.26;93.63;101666.34;6117294;19;20014;-79
2023/03/15 03:45:52;;;;;;;4.15;1.48;;;;;;;1.25;93.79;101668.91;6120864;19;20003;-77
2023/03/15 03:47:57;;;;;;;3.53;1.40;;;;;;;1.22;94.32;101669.75;6123289;19;20018;-79
2023/03/15 03:50:02;;;;;;;4.43;1.20;;;;;;;1.23;94.04;101676.66;6121464;19;20060;-76
2023/03/15 03:52:08;;;;;;;2.70;1.40;;;;;;;1.21;93.87;101682.66;6122519;19;20319;-80
2023/03/15 03:54:15;;;;;;;3.92;1.58;;;;;;;1.20;94.46;101663.66;6116778;19;20704;-78
2023/03/15 03:56:21;;;;;;;3.58;1.95;;;;;;;1.18;94.27;101673.13;6113042;19;20312;-78
2023/03/15 03:58:26;;;;;;;4.90;1.70;;;;;;;1.20;94.63;101675.75;6108450;19;20082;-78
2023/03/15 04:00:30;;;;;;;2.15;1.40;;;;;;;1.17;94.43;101681.75;6086732;19;20359;-78
2023/03/15 04:02:35;;;;;;;3.83;1.50;;;;;;;1.15;94.62;101683.47;6103008;19;20011;-78
2023/03/15 04:04:40;;;;;;;4.25;1.65;;;;;;;1.15;94.38;101693.81;6084260;19;20015;-77
2023/03/15 04:06:49;;;;;;;2.88;1.60;;;;;;;1.18;94.60;101699.03;6101396;19;20746;-77
2023/03/15 04:08:54;;;;;;;3.83;1.45;;;;;;;1.22;94.12;101694.78;6102535;19;20085;-77
2023/03/15 04:11:04;;;;;;;4.80;1.40;;;;;;;1.23;94.03;101701.69;6103930;19;20458;-77
2023/03/15 04:13:10;;;;;;;1.70;1.50;;;;;;;1.22;94.37;101700.81;6101937;19;20007;-77
2023/03/15 04:15:15;;;;;;;2.83;1.60;;;;;;;1.19;94.32;101705.97;6100884;19;20640;-77
2023/03/15 04:17:20;;;;;;;1.67;1.40;;;;;;;1.20;94.33;101710.28;6099402;19;20042;-76
2023/03/15 04:19:25;;;;;;;2.20;1.35;;;;;;;1.19;94.17;101713.72;6098165;19;20022;-77
2023/03/15 04:21:31;;;;;;;5.22;1.75;;;;;;;1.16;94.18;101717.97;6097539;19;20499;-77
2023/03/15 04:23:36;;;;;;;2.03;1.83;;;;;;;1.12;94.08;101719.66;6099629;19;20010;-76
2023/03/15 04:25:41;;;;;;;3.95;1.70;;;;;;;1.08;94.39;101717.91;6098581;19;20066;-77
2023/03/15 04:27:57;;;;;;;3.88;1.70;;;;;;;1.07;94.18;101719.59;6099728;19;20562;-76
2023/03/15 04:30:04;;;;;;;1.70;1.25;;;;;;;1.05;94.75;101723.91;6097775;19;20057;-77
2023/03/15 04:32:12;;;;;;;2.38;1.60;;;;;;;1.04;94.29;101729.06;6095511;19;20014;-75
2023/03/15 04:34:18;;;;;;;1.85;1.50;;;;;;;1.04;94.49;101729.06;6097647;19;20014;-77
2023/03/15 04:36:23;;;;;;;2.20;1.40;;;;;;;1.06;94.41;101729.97;6099520;19;20588;-77
2023/03/15 04:38:31;;;;;;;3.42;1.58;;;;;;;1.07;94.18;101731.69;6098570;19;20014;-77
2023/03/15 04:40:37;;;;;;;3.85;1.90;;;;;;;1.06;94.96;101743.75;6100328;19;20617;-77
2023/03/15 04:42:46;;;;;;;1.75;1.65;;;;;;;1.09;94.47;101748.97;6078912;19;20749;-78
2023/03/15 04:44:57;;;;;;;4.70;2.60;;;;;;;1.10;94.89;101760.19;6100348;19;20011;-78
2023/03/15 04:47:03;;;;;;;3.67;1.80;;;;;;;1.12;94.64;101758.50;6104327;19;20006;-78
2023/03/15 04:49:10;;;;;;;3.70;1.95;;;;;;;1.12;94.73;101766.25;6103795;19;20017;-78
2023/03/15 04:51:17;;;;;;;6.88;1.83;;;;;;;1.11;94.57;101761.94;6102982;19;20017;-79
2023/03/15 04:53:22;;;;;;;7.65;1.90;;;;;;;1.23;94.08;101764.69;6103167;19;20502;-78
2023/03/15 04:55:27;;;;;;;2.55;1.40;;;;;;;1.24;94.16;101763.84;6104027;19;20011;-77
2023/03/15 04:57:32;;;;;;;2.88;1.50;;;;;;;1.22;94.32;101762.94;6102515;19;20494;-78
2023/03/15 04:59:40;;;;;;;2.58;1.75;;;;;;;1.20;94.44;101764.63;6103167;19;20022;-78
2023/03/15 05:01:50;;;;;;;1.92;1.40;;;;;;;1.18;94.78;101758.56;6078847;19;20102;-77
2023/03/15 05:03:55;;;;;;;3.45;1.83;;;;;;;1.13;94.53;101755.03;6102351;19;20014;-77
2023/03/15 05:06:00;;;;;;;2.90;1.75;;;;;;;1.12;95.08;101761.09;6099149;19;20431;-77
2023/03/15 05:08:06;;;;;;;4.40;2.15;;;;;;;1.05;94.60;101759.25;6100537;19;20106;-77
2023/03/15 05:10:13;;;;;;;3.10;1.70;;;;;;;1.02;94.59;101759.22;6095381;19;20695;-77
2023/03/15 05:12:18;;;;;;;2.90;1.80;;;;;;;0.98;94.59;101770.41;6076265;19;20018;-77
2023/03/15 05:14:23;;;;;;;2.60;2.38;;;;;;;0.94;95.09;101766.00;6099033;19;20011;-78
2023/03/15 05:16:36;;;;;;;3.80;2.00;;;;;;;0.92;94.89;101773.75;6103140;19;20026;-77
2023/03/15 05:18:44;;;;;;;2.47;1.60;;;;;;;0.87;94.82;101781.47;6104214;19;20090;-77
2023/03/15 05:20:49;;;;;;;4.72;1.92;;;;;;;0.83;94.53;101776.22;6104601;19;20010;-78
2023/03/15 05:22:58;;;;;;;4.72;2.40;;;;;;;0.76;94.49;101777.81;6102710;19;20019;-77
2023/03/15 05:25:03;;;;;;;7.03;2.22;;;;;;;0.68;94.75;101778.56;6100623;19;20018;-77
2023/03/15 05:27:10;;;;;;;4.32;2.10;;;;;;;0.67;95.02;101777.69;6103200;19;20499;-77
2023/03/15 05:29:16;;;;;;;3.35;2.08;;;;;;;0.66;95.02;101786.31;6098938;19;20014;-78
2023/03/15 05:31:21;;;;;;;5.30;3.20;;;;;;;0.62;95.22;101789.69;6100937;19;20009;-78
2023/03/15 05:33:26;;;;;;;6.65;2.50;;;;;;;0.57;95.37;101783.56;6104131;19;20147;-78
2023/03/15 05:35:34;;;;;;;5.22;2.13;;;;;;;0.56;95.26;101793.06;6102640;19;20011;-78
2023/03/15 05:37:39;;;;;;;3.42;1.73;;;;;;;0.54;95.08;101796.47;6100624;19;20504;-78
2023/03/15 05:39:44;;;;;;;5.35;2.03;;;;;;;0.47;95.37;101797.19;6102456;19;20543;-77
2023/03/15 05:41:51;;;;;;;6.22;2.15;;;;;;;0.42;95.34;101804.88;6078543;19;20022;-77
2023/03/15 05:43:56;;;;;;;5.35;2.17;;;;;;;0.43;95.24;101799.75;6101974;19;20610;-78
2023/03/15 05:46:03;;;;;;;6.05;2.50;;;;;;;0.39;95.16;101810.00;6101727;19;20629;-78
2023/03/15 05:48:08;;;;;;;6.05;2.17;;;;;;;0.41;95.56;101814.34;6099576;19;20502;-78
2023/03/15 05:50:13;;;;;;;4.07;2.03;;;;;;;0.39;95.13;101807.41;6095179;19;20223;-77
2023/03/15 05:52:21;;;;;;;4.28;2.00;;;;;;;0.38;95.11;101814.31;6105221;19;20042;-78
2023/03/15 05:54:27;;;;;;;2.85;1.90;;;;;;;0.35;94.73;101826.31;6100455;19;20019;-76
2023/03/15 05:56:32;;;;;;;5.85;2.00;;;;;;;0.31;95.03;101837.44;6101622;19;20010;-76
2023/03/15 05:58:41;;;;;;;5.00;2.50;;;;;;;0.30;95.47;101833.13;6103420;19;20026;-73
2023/03/15 06:00:48;;;;;;;6.85;2.85;;;;;;;0.27;95.16;101835.66;6099317;19;20015;-73
2023/03/15 06:02:53;;;;;;;4.28;2.20;;;;;;;0.25;95.23;101839.94;6100810;19;20881;-74
2023/03/15 06:04:58;;;;;;;5.20;2.47;;;;;;;0.22;94.95;101846.78;6104079;19;20025;-75
2023/03/15 06:07:02;;;;;;;9.95;2.85;;;;;;;0.24;95.64;101854.56;6101515;19;20019;-73
2023/03/15 06:09:10;;;;;;;7.40;2.85;;;;;;;0.21;95.72;101864.81;6098644;19;20102;-74
2023/03/15 06:11:15;;;;;;;6.07;3.00;;;;;;;0.17;95.25;101871.66;6101806;19;20105;-73
2023/03/15 06:13:23;;;;;;;9.88;2.83;;;;;;;0.20;95.66;101881.19;6101456;19;20285;-74
2023/03/15 06:15:27;;;;;;;8.23;2.90;;;;;;;0.17;95.67;101876.84;6101447;19;20015;-74
2023/03/15 06:17:33;;;;;;;10.82;3.38;;;;;;;0.12;95.30;101880.19;6102142;19;20062;-74
2023/03/15 06:19:39;;;;;;;4.90;2.50;;;;;;;0.12;95.58;101880.19;6102577;19;20110;-74
2023/03/15 06:21:44;;;;;;;7.50;3.47;;;;;;;0.10;95.50;101879.28;6104360;19;20102;-74
2023/03/15 06:23:52;;;;;;;6.30;2.95;;;;;;;0.11;95.32;101887.06;6102022;19;20031;-74
2023/03/15 06:25:59;;;;;;;6.82;3.08;;;;;;;0.10;95.64;101892.19;6103386;19;20018;-74
2023/03/15 06:28:04;;;;;;;10.35;3.83;;;;;;;0.11;95.55;101899.13;6101115;19;20027;-74
2023/03/15 06:30:10;;;;;;;9.55;3.03;;;;;;;0.14;95.67;101897.47;6099923;19;20029;-74
2023/03/15 06:32:21;;;;;;;5.82;2.72;;;;;;;0.15;95.69;101898.31;6098737;19;20023;-75
2023/03/15 06:34:29;;;;;;;9.10;3.53;;;;;;;0.20;95.63;101909.63;6103231;19;20697;-74
2023/03/15 06:36:41;;;;;;;8.73;3.47;;;;;;;0.18;95.41;101912.16;6100477;19;20410;-74
2023/03/15 06:38:46;;;;;;;7.55;3.20;;;;;;;0.20;95.66;101900.16;6081419;19;20007;-74
2023/03/15 06:40:54;;;;;;;6.45;2.63;;;;;;;0.26;96.52;101908.88;6100690;19;20003;-74
2023/03/15 06:43:04;;;;;;;8.75;4.20;;;;;;;0.30;96.43;101911.56;6103589;19;20015;-75
2023/03/15 06:45:18;;;;;;;7.43;3.50;;;;;;;0.34;96.21;101918.53;6109108;19;20014;-74
2023/03/15 06:47:22;;;;;;;6.03;2.92;;;;;;;0.35;95.58;101922.84;6107044;19;20113;-74
2023/03/15 06:49:30;;;;;;;10.25;3.97;;;;;;;0.36;95.64;101927.16;6113029;19;20388;-74
2023/03/15 06:51:37;;;;;;;10.20;3.65;;;;;;;0.36;95.29;101929.75;6111177;19;20032;-75
2023/03/15 06:53:45;;;;;;;9.15;3.13;;;;;;;0.39;95.69;101928.94;6112241;19;20341;-74
2023/03/15 06:55:51;;;;;;;6.95;3.17;;;;;;;0.39;95.59;101932.38;6112276;19;20074;-74
2023/03/15 06:57:56;;;;;;;6.18;2.75;;;;;;;0.42;95.79;101931.56;6113927;19;20709;-75
2023/03/15 07:00:06;;;;;;;10.27;3.72;;;;;;;0.52;96.12;101935.22;6114933;19;20018;-75
2023/03/15 07:02:16;;;;;;;14.60;5.25;;;;;;;0.56;96.08;101935.31;6109732;19;20029;-74
2023/03/15 07:04:22;;;;;;;7.80;3.97;;;;;;;0.59;95.81;101945.69;6103873;19;20700;-74
2023/03/15 07:06:28;;;;;;;8.38;3.33;;;;;;;0.60;95.82;101944.84;6110051;19;20223;-74
2023/03/15 07:08:33;;;;;;;6.53;2.92;;;;;;;0.69;95.92;101953.66;6106618;19;20625;-74
2023/03/15 07:10:41;;;;;;;8.57;3.55;;;;;;;0.75;96.03;101945.97;6106134;19;20036;-74
2023/03/15 07:12:46;;;;;;;6.55;3.33;;;;;;;0.81;95.99;101952.13;6104649;19;20022;-74
2023/03/15 07:14:51;;;;;;;10.73;3.88;;;;;;;0.88;95.87;101948.81;6102705;19;20010;-74
2023/03/15 07:16:59;;;;;;;10.07;3.45;;;;;;;0.85;95.10;101955.66;6077811;19;20035;-74
2023/03/15 07:19:04;;;;;;;13.98;4.03;;;;;;;0.94;95.40;101962.69;6098764;19;20082;-74
2023/03/15 07:21:09;;;;;;;10.77;4.10;;;;;;;1.00;95.14;101960.19;6101709;19;20479;-75
2023/03/15 07:23:16;;;;;;;13.38;4.25;;;;;;;1.13;95.17;101969.03;6078932;19;20019;-74
2023/03/15 07:25:22;;;;;;;10.82;3.35;;;;;;;1.11;95.04;101971.63;6077182;19;20018;-74
2023/03/15 07:27:28;;;;;;;11.88;3.17;;;;;;;1.16;95.37;101972.56;6075672;19;20510;-75
2023/03/15 07:29:34;;;;;;;9.48;3.47;;;;;;;1.21;95.03;101975.22;6097847;19;20699;-75
2023/03/15 07:31:41;;;;;;;9.02;3.40;;;;;;;1.26;94.91;101984.84;6098138;19;20010;-75
2023/03/15 07:33:48;;;;;;;11.75;3.90;;;;;;;1.34;94.85;101976.28;6097621;19;20011;-75
2023/03/15 07:35:55;;;;;;;7.97;3.03;;;;;;;1.34;94.73;101973.69;6099491;19;20082;-75
2023/03/15 07:37:59;;;;;;;7.45;2.70;;;;;;;1.40;94.64;101972.09;6093838;19;20031;-75
2023/03/15 07:40:08;;;;;;;10.55;3.60;;;;;;;1.45;94.11;101972.13;6095579;19;20011;-76
2023/03/15 07:42:16;;;;;;;15.68;3.42;;;;;;;1.56;93.13;101980.09;6096348;19;20046;-75
2023/03/15 07:44:25;;;;;;;7.97;2.88;;;;;;;1.60;92.92;101985.31;6096136;19;20006;-75
2023/03/15 07:46:30;;;;;;;10.40;3.38;;;;;;;1.79;93.43;101993.38;6100491;19;20656;-75
2023/03/15 07:48:35;;;;;;;11.70;4.22;;;;;;;1.94;92.62;101991.00;6097651;19;20038;-75
2023/03/15 07:50:46;;;;;;;15.65;3.45;;;;;;;2.13;92.00;102002.47;6078327;19;20020;-74
2023/03/15 07:52:54;;;;;;;13.90;4.05;;;;;;;2.28;92.07;102005.25;6097811;19;20679;-76
2023/03/15 07:54:59;;;;;;;6.53;2.90;;;;;;;2.49;92.04;102008.97;6099313;19;20017;-76
2023/03/15 07:57:05;;;;;;;8.25;3.45;;;;;;;2.72;90.32;102007.50;6097860;19;20677;-74
2023/03/15 07:59:10;;;;;;;8.35;2.92;;;;;;;2.95;89.31;102014.66;6099661;19;20017;-74
2023/03/15 08:01:15;;;;;;;11.23;3.47;;;;;;;3.17;88.61;102015.72;6100227;19;20527;-74
2023/03/15 08:03:29;;;;;;;11.52;3.00;;;;;;;3.41;88.01;102021.13;6100393;19;20240;-75
2023/03/15 08:05:41;;;;;;;11.18;3.40;;;;;;;3.68;88.02;102019.59;6080922;19;20010;-75
2023/03/15 08:07:50;;;;;;;7.22;2.75;;;;;;;3.91;86.62;102017.16;6097517;19;20015;-75
2023/03/15 08:09:57;;;;;;;9.93;3.45;;;;;;;4.02;85.80;102025.88;6098047;19;20002;-75
2023/03/15 08:12:05;;;;;;;7.40;2.92;;;;;;;4.23;84.79;102021.66;6099132;19;20082;-75
2023/03/15 08:14:11;;;;;;;16.02;3.55;;;;;;;4.48;84.46;102026.09;6098445;19;20495;-75
2023/03/15 08:16:15;;;;;;;7.72;2.53;;;;;;;4.53;83.22;102037.41;6094973;19;20596;-75
2023/03/15 08:18:20;;;;;;;10.73;3.15;;;;;;;4.75;82.35;102034.88;6098395;19;20039;-75
2023/03/15 08:20:27;;;;;;;11.32;3.35;;;;;;;4.83;82.64;102039.22;6097403;19;20027;-75
2023/03/15 08:22:36;;;;;;;8.30;3.33;;;;;;;5.13;82.92;102040.13;6100493;19;20242;-75
2023/03/15 08:24:57;;;;;;;;;;;;;;;;;;;;;
2023/03/15 08:27:04;;;;;;;11.18;3.55;;;;;;;5.12;81.75;102040.16;6099120;19;20023;-75
2023/03/15 08:29:08;;;;;;;10.82;3.28;;;;;;;5.39;82.84;102042.75;6097704;19;20075;-75
2023/03/15 08:31:21;;;;;;;14.27;3.67;;;;;;;5.21;79.03;102048.84;6095732;19;20010;-75
2023/03/15 08:33:29;;;;;;;9.30;2.90;;;;;;;5.35;79.12;102046.25;6094261;19;20686;-75
2023/03/15 08:35:34;;;;;;;9.50;2.53;;;;;;;5.50;78.91;102047.97;6097544;19;20039;-75
2023/03/15 08:37:39;;;;;;;13.57;2.83;;;;;;;5.32;79.16;102037.53;6098580;19;20011;-76
2023/03/15 08:39:56;;;;;;;11.55;2.80;;;;;;;5.49;77.85;102043.66;6074456;19;20007;-76
2023/03/15 08:42:04;;;;;;;8.05;2.33;;;;;;;5.53;75.80;102036.69;6096809;19;20021;-75
2023/03/15 08:44:11;;;;;;;8.35;2.42;;;;;;;5.83;77.27;102030.56;6099009;19;20791;-75
2023/03/15 08:46:22;;;;;;;9.00;1.90;;;;;;;5.92;76.55;102046.19;6095839;19;20094;-75
2023/03/15 08:48:30;;;;;;;5.82;2.70;;;;;;;5.99;73.19;102041.88;6095900;19;20017;-75
2023/03/15 08:50:37;;;;;;;12.15;3.00;;;;;;;6.08;74.03;102047.97;6096499;19;20050;-74
2023/03/15 08:52:43;;;;;;;5.82;1.70;;;;;;;6.19;72.86;102047.94;6099060;19;20115;-74
2023/03/15 08:54:53;;;;;;;7.03;2.47;;;;;;;6.09;73.86;102044.47;6096933;19;20018;-75
2023/03/15 08:56:57;;;;;;;7.10;2.35;;;;;;;6.24;72.39;102054.00;6097573;19;20010;-74
2023/03/15 08:59:04;;;;;;;6.10;1.92;;;;;;;6.33;73.80;102045.25;6096523;19;20065;-73
2023/03/15 09:01:09;;;;;;;8.88;2.20;;;;;;;6.28;72.40;102050.50;6097342;19;20018;-74
2023/03/15 09:03:15;;;;;;;10.75;2.10;;;;;;;6.14;70.21;102053.16;6075600;19;20676;-74
2023/03/15 09:05:25;;;;;;;7.15;2.03;;;;;;;6.42;72.36;102045.22;6101044;19;20010;-73
2023/03/15 09:07:31;;;;;;;11.57;2.67;;;;;;;6.53;71.47;102042.56;6098578;19;20046;-74
2023/03/15 09:09:47;;;;;;;7.13;2.20;;;;;;;6.80;72.67;102042.44;6103009;19;20027;-80
2023/03/15 09:11:55;;;;;;;7.22;2.03;;;;;;;7.11;73.05;102043.97;6102240;19;20021;-79
2023/03/15 09:14:00;;;;;;;5.65;2.05;;;;;;;7.12;72.21;102040.50;6100275;19;20082;-80
2023/03/15 09:16:05;;;;;;;5.65;2.05;;;;;;;7.29;71.85;102036.00;6098200;19;20025;-79
2023/03/15 09:18:11;;;;;;;5.88;2.50;;;;;;;7.37;71.24;102035.94;6098890;19;20495;-79
2023/03/15 09:20:20;;;;;;;7.30;2.03;;;;;;;7.19;67.54;102029.13;6095010;19;20040;-79
2023/03/15 09:22:25;;;;;;;16.58;3.05;;;;;;;7.02;69.52;102035.31;6099174;19;20018;-79
2023/03/15 09:24:43;;;;;;;7.63;2.28;;;;;;;7.18;69.30;102035.22;6100074;19;20260;-79
2023/03/15 09:26:48;;;;;;;5.50;2.50;;;;;;;7.01;67.24;102027.50;6098407;19;20018;-79
2023/03/15 09:28:55;;;;;;;7.97;2.28;;;;;;;7.04;68.02;102033.56;6098253;19;20339;-79
2023/03/15 09:31:00;;;;;;;7.93;2.20;;;;;;;7.40;67.30;102031.56;6096722;19;20015;-78
2023/03/15 09:33:06;;;;;;;9.27;2.15;;;;;;;7.26;67.57;102031.66;6095295;19;20010;-77
2023/03/15 09:35:16;;;;;;;4.15;1.77;;;;;;;7.38;63.95;102037.69;6097242;19;20090;-78
2023/03/15 09:37:21;;;;;;;10.35;2.42;;;;;;;7.09;64.49;102048.38;6098723;19;21030;-77
2023/03/15 09:39:26;;;;;;;5.68;2.00;;;;;;;6.86;65.30;102054.59;6074789;19;20025;-78
2023/03/15 09:41:43;;;;;;;6.18;1.80;;;;;;;6.98;64.22;102049.31;6098167;19;20011;-78
2023/03/15 09:44:09;;;;;;;8.45;2.15;;;;;;;6.96;62.25;102051.06;6097848;19;20018;-78
2023/03/15 09:46:27;;;;;;;5.65;1.85;;;;;;;7.20;61.06;102041.31;6098250;19;20086;-78
2023/03/15 09:48:36;;;;;;;4.85;1.55;;;;;;;7.71;63.47;102041.75;6072443;19;20082;-77
2023/03/15 09:50:47;;;;;;;10.82;1.90;;;;;;;7.84;60.72;102032.03;6095778;19;20014;-77
2023/03/15 09:52:56;;;;;;;3.60;1.65;;;;;;;7.81;57.32;102032.94;6097446;19;20506;-77
2023/03/15 09:55:04;;;;;;;6.30;1.70;;;;;;;7.87;58.72;102038.13;6077452;19;20014;-77
2023/03/15 09:57:17;;;;;;;6.90;1.35;;;;;;;8.24;60.33;102032.50;6097840;19;20006;-78
2023/03/15 09:59:31;;;;;;;7.68;2.78;;;;;;;8.20;57.97;102045.63;6079434;19;20018;-78
2023/03/15 10:01:41;;;;;;;7.10;1.73;;;;;;;8.16;56.40;102046.53;6101727;19;20014;-78